Friday, January 19, 2018, 10:28 PM EST
Back to Local

KALB, Albany International Airport

Location: Latham, NY, United States Lat: 42.75
Local Time: 10:28 PM EST ( 3:28 GMT) Lon: -73.8
Time Zone: US/Eastern Elev: 285 ft

Show me the last for .
Show Decoded

2018-01-19 21:51 METAR KALB 200251Z 17004KT 10SM FEW210 BKN250 M04/M09 A2988 RMK AO2 SLP123 BKN V
                 SCT T10391094 58020 =
2018-01-19 20:51 METAR KALB 200151Z 17005KT 10SM FEW200 BKN250 M04/M09 A2990 RMK AO2 SLP129
                 T10391089 =
2018-01-19 19:51 METAR KALB 200051Z 00000KT 10SM SCT200 BKN250 M06/M09 A2993 RMK AO2 SLP139 BKN V
                 OVC T10561094 =
2018-01-19 18:51 METAR KALB 192351Z 00000KT 10SM BKN220 M07/M10 A2994 RMK AO2 SLP144 4/003
                 T10671100 11011 21067 55005 =
2018-01-19 17:51 METAR KALB 192251Z 00000KT 10SM FEW035 SCT230 M04/M09 A2994 RMK AO2 SLP144
                 T10391089 =
2018-01-19 16:51 METAR KALB 192151Z 17003KT 10SM FEW029 BKN035 BKN240 M02/M08 A2994 RMK AO2
                 SLP141 T10171083 =
2018-01-19 16:30 METAR KALB 192130Z 17005KT 10SM SCT029 OVC035 M02/M08 A2994 RMK AO2 BINOVC
                 T10171083 =
2018-01-19 15:51 METAR KALB 192051Z 16003KT 10SM BKN029 OVC035 M01/M08 A2996 RMK AO2 SLP148
                 T10111078 55005 =
2018-01-19 14:51 METAR KALB 191951Z 00000KT 10SM OVC029 M02/M08 A2996 RMK AO2 SLP148 BINOVC DSNT
                 SW T10171083 =
2018-01-19 13:51 METAR KALB 191851Z 19003KT 9SM OVC029 M02/M08 A2996 RMK AO2 SLP150 T10221083 =
2018-01-19 12:51 METAR KALB 191751Z 18005KT 10SM OVC032 M03/M09 A2997 RMK AO2 SLP153 4/003 933003
                 I6000 T10281094 11028 21111 58018 =
2018-01-19 11:51 METAR KALB 191651Z 18005KT 10SM OVC034 M04/M09 A2999 RMK AO2 SLP160 T10391094 =
2018-01-19 10:51 METAR KALB 191551Z 18005KT 10SM OVC037 M05/M11 A3002 RMK AO2 SLP169 OCNL BINOVC
                 T10501106 =
2018-01-19 09:51 METAR KALB 191451Z 17006KT 9SM OVC038 M07/M11 A3003 RMK AO2 SLP172 BINOVC I3000
                 T10671111 53005 =
2018-01-19 08:51 METAR KALB 191351Z 17005KT 8SM FEW040 FEW150 SCT190 SCT260 M07/M11 A3002 RMK AO2
                 SLP171 T10721111 =
2018-01-19 07:51 METAR KALB 191251Z 17004KT 8SM FEW040 SCT150 SCT200 M10/M13 A3001 RMK AO2 SLP168
                 I1000 T11001128 =
2018-01-19 06:51 METAR KALB 191151Z 19004KT 10SM FEW040 FEW100 FEW200 M10/M13 A3001 RMK AO2
                 SLP168 4/004 I1001 I6001 T11001133 11050 21111 53006 =
2018-01-19 05:51 METAR KALB 191051Z 00000KT 10SM FEW100 SCT150 SCT200 M10/M12 A3000 RMK AO2
                 SLP162 I1000 T11001117 =
2018-01-19 04:51 METAR KALB 190951Z 00000KT 10SM FEW039 SCT095 BKN150 M07/M11 A2999 RMK AO2
                 SLP160 T10721106 =
2018-01-19 03:51 METAR KALB 190851Z 00000KT 10SM OVC039 M06/M09 A2999 RMK AO2 SLP160 T10611094
                 58004 =
2018-01-19 02:51 METAR KALB 190751Z 00000KT 10SM OVC043 M07/M10 A3000 RMK AO2 SLP163 T10671100 =
2018-01-19 01:51 METAR KALB 190651Z 00000KT 10SM SCT031 BKN140 OVC200 M06/M10 A3000 RMK AO2
                 SLP164 T10561100 =
2018-01-19 01:33 METAR KALB 190633Z 00000KT 10SM BKN031 BKN140 OVC200 M06/M10 A3000 RMK AO2
                 T10561100 =
2018-01-19 00:51 METAR KALB 190551Z 00000KT 10SM OVC023 M05/M09 A3001 RMK AO2 SLP165 4/004 60000
                 T10501094 11044 21056 58013 =
2018-01-18 23:51 METAR KALB 190451Z 26005KT 10SM OVC023 M05/M10 A3003 RMK AO2 SNE13 SLP173 P0000
                 T10501100 410441167 =
2018-01-18 22:51 METAR KALB 190351Z 31006KT 10SM -SN OVC023 M05/M10 A3003 RMK AO2 SLP173 PCPN VRY
                 LGT P0000 T10501100 =

Support USWX by starting your Amazon purchase here.